sensor_id;sensor_type;location;lat;lon;timestamp;P1;durP1;ratioP1;P2;durP2;ratioP2
75413;SDS011;64758;52.122;5.404;2023-12-07T00:01:59;11.03;;;4.43;;
75413;SDS011;64758;52.122;5.404;2023-12-07T00:04:25;9.02;;;4.25;;
75413;SDS011;64758;52.122;5.404;2023-12-07T00:06:52;11.75;;;5.18;;
75413;SDS011;64758;52.122;5.404;2023-12-07T00:09:19;9.75;;;4.88;;
75413;SDS011;64758;52.122;5.404;2023-12-07T00:11:45;8.48;;;3.95;;
75413;SDS011;64758;52.122;5.404;2023-12-07T00:14:12;9.97;;;4.00;;
75413;SDS011;64758;52.122;5.404;2023-12-07T00:16:38;6.70;;;3.80;;
75413;SDS011;64758;52.122;5.404;2023-12-07T00:19:05;6.05;;;3.25;;
75413;SDS011;64758;52.122;5.404;2023-12-07T00:21:31;8.65;;;4.35;;
75413;SDS011;64758;52.122;5.404;2023-12-07T00:23:58;7.53;;;3.70;;
75413;SDS011;64758;52.122;5.404;2023-12-07T00:26:25;9.30;;;4.83;;
75413;SDS011;64758;52.122;5.404;2023-12-07T00:28:51;9.25;;;4.32;;
75413;SDS011;64758;52.122;5.404;2023-12-07T00:31:18;8.15;;;4.57;;
75413;SDS011;64758;52.122;5.404;2023-12-07T00:33:46;10.32;;;4.88;;
75413;SDS011;64758;52.122;5.404;2023-12-07T00:36:13;11.82;;;5.53;;
75413;SDS011;64758;52.122;5.404;2023-12-07T00:38:40;13.23;;;4.90;;
75413;SDS011;64758;52.122;5.404;2023-12-07T00:41:07;10.95;;;5.22;;
75413;SDS011;64758;52.122;5.404;2023-12-07T00:43:33;7.90;;;4.72;;
75413;SDS011;64758;52.122;5.404;2023-12-07T00:46:00;10.60;;;5.38;;
75413;SDS011;64758;52.122;5.404;2023-12-07T00:48:26;11.30;;;5.80;;
75413;SDS011;64758;52.122;5.404;2023-12-07T00:50:53;11.10;;;5.83;;
75413;SDS011;64758;52.122;5.404;2023-12-07T00:53:19;10.00;;;5.15;;
75413;SDS011;64758;52.122;5.404;2023-12-07T00:55:46;13.35;;;5.90;;
75413;SDS011;64758;52.122;5.404;2023-12-07T00:58:12;11.45;;;5.28;;
75413;SDS011;64758;52.122;5.404;2023-12-07T01:00:40;11.27;;;5.32;;
75413;SDS011;64758;52.122;5.404;2023-12-07T01:03:06;9.23;;;4.90;;
75413;SDS011;64758;52.122;5.404;2023-12-07T01:05:33;13.27;;;5.60;;
75413;SDS011;64758;52.122;5.404;2023-12-07T01:08:00;9.00;;;5.28;;
75413;SDS011;64758;52.122;5.404;2023-12-07T01:10:27;9.65;;;4.85;;
75413;SDS011;64758;52.122;5.404;2023-12-07T01:12:53;9.07;;;4.72;;
75413;SDS011;64758;52.122;5.404;2023-12-07T01:15:20;9.47;;;4.80;;
75413;SDS011;64758;52.122;5.404;2023-12-07T01:17:46;8.50;;;5.03;;
75413;SDS011;64758;52.122;5.404;2023-12-07T01:20:13;11.45;;;5.63;;
75413;SDS011;64758;52.122;5.404;2023-12-07T01:22:40;9.77;;;5.63;;
75413;SDS011;64758;52.122;5.404;2023-12-07T01:25:12;12.05;;;6.38;;
75413;SDS011;64758;52.122;5.404;2023-12-07T01:27:43;10.03;;;5.67;;
75413;SDS011;64758;52.122;5.404;2023-12-07T01:30:10;10.25;;;5.63;;
75413;SDS011;64758;52.122;5.404;2023-12-07T01:32:37;8.13;;;5.05;;
75413;SDS011;64758;52.122;5.404;2023-12-07T01:35:03;10.13;;;5.60;;
75413;SDS011;64758;52.122;5.404;2023-12-07T01:37:30;9.32;;;5.35;;
75413;SDS011;64758;52.122;5.404;2023-12-07T01:39:57;9.67;;;4.87;;
75413;SDS011;64758;52.122;5.404;2023-12-07T01:42:24;9.60;;;4.85;;
75413;SDS011;64758;52.122;5.404;2023-12-07T01:44:51;8.82;;;4.97;;
75413;SDS011;64758;52.122;5.404;2023-12-07T01:47:17;8.52;;;4.55;;
75413;SDS011;64758;52.122;5.404;2023-12-07T01:49:44;10.48;;;5.18;;
75413;SDS011;64758;52.122;5.404;2023-12-07T01:52:11;9.43;;;4.77;;
75413;SDS011;64758;52.122;5.404;2023-12-07T01:54:39;9.23;;;5.18;;
75413;SDS011;64758;52.122;5.404;2023-12-07T01:57:06;10.50;;;4.90;;
75413;SDS011;64758;52.122;5.404;2023-12-07T01:59:33;9.50;;;4.80;;
75413;SDS011;64758;52.122;5.404;2023-12-07T02:02:00;10.23;;;4.93;;
75413;SDS011;64758;52.122;5.404;2023-12-07T02:04:26;9.57;;;5.57;;
75413;SDS011;64758;52.122;5.404;2023-12-07T02:06:54;11.20;;;5.47;;
75413;SDS011;64758;52.122;5.404;2023-12-07T02:09:24;9.63;;;4.93;;
75413;SDS011;64758;52.122;5.404;2023-12-07T02:11:51;9.05;;;4.97;;
75413;SDS011;64758;52.122;5.404;2023-12-07T02:14:17;10.20;;;5.03;;
75413;SDS011;64758;52.122;5.404;2023-12-07T02:16:45;10.17;;;5.40;;
75413;SDS011;64758;52.122;5.404;2023-12-07T02:19:39;10.15;;;4.72;;
75413;SDS011;64758;52.122;5.404;2023-12-07T02:22:21;10.68;;;5.68;;
75413;SDS011;64758;52.122;5.404;2023-12-07T02:25:01;12.07;;;5.13;;
75413;SDS011;64758;52.122;5.404;2023-12-07T02:27:43;9.35;;;4.88;;
75413;SDS011;64758;52.122;5.404;2023-12-07T02:30:14;9.17;;;4.90;;
75413;SDS011;64758;52.122;5.404;2023-12-07T02:32:42;7.55;;;4.50;;
75413;SDS011;64758;52.122;5.404;2023-12-07T02:35:10;8.65;;;4.43;;
75413;SDS011;64758;52.122;5.404;2023-12-07T02:37:45;10.45;;;4.95;;
75413;SDS011;64758;52.122;5.404;2023-12-07T02:40:16;8.25;;;4.32;;
75413;SDS011;64758;52.122;5.404;2023-12-07T02:42:44;8.87;;;4.60;;
75413;SDS011;64758;52.122;5.404;2023-12-07T02:45:12;10.52;;;5.22;;
75413;SDS011;64758;52.122;5.404;2023-12-07T02:47:39;7.28;;;4.82;;
75413;SDS011;64758;52.122;5.404;2023-12-07T02:50:06;9.52;;;4.93;;
75413;SDS011;64758;52.122;5.404;2023-12-07T02:52:34;7.82;;;4.53;;
75413;SDS011;64758;52.122;5.404;2023-12-07T02:55:01;10.43;;;4.93;;
75413;SDS011;64758;52.122;5.404;2023-12-07T02:57:29;10.20;;;4.90;;
75413;SDS011;64758;52.122;5.404;2023-12-07T02:59:56;12.18;;;5.03;;
75413;SDS011;64758;52.122;5.404;2023-12-07T03:02:23;8.23;;;4.32;;
75413;SDS011;64758;52.122;5.404;2023-12-07T03:04:50;9.68;;;4.30;;
75413;SDS011;64758;52.122;5.404;2023-12-07T03:07:16;9.53;;;4.07;;
75413;SDS011;64758;52.122;5.404;2023-12-07T03:09:43;8.95;;;4.05;;
75413;SDS011;64758;52.122;5.404;2023-12-07T03:12:09;10.80;;;4.80;;
75413;SDS011;64758;52.122;5.404;2023-12-07T03:14:36;10.00;;;5.50;;
75413;SDS011;64758;52.122;5.404;2023-12-07T03:17:03;8.65;;;4.68;;
75413;SDS011;64758;52.122;5.404;2023-12-07T03:19:30;9.40;;;3.93;;
75413;SDS011;64758;52.122;5.404;2023-12-07T03:21:57;10.68;;;4.75;;
75413;SDS011;64758;52.122;5.404;2023-12-07T03:24:24;9.40;;;4.72;;
75413;SDS011;64758;52.122;5.404;2023-12-07T03:26:50;9.45;;;4.65;;
75413;SDS011;64758;52.122;5.404;2023-12-07T03:29:17;7.55;;;3.95;;
75413;SDS011;64758;52.122;5.404;2023-12-07T03:31:43;9.47;;;5.43;;
75413;SDS011;64758;52.122;5.404;2023-12-07T03:34:10;9.20;;;5.10;;
75413;SDS011;64758;52.122;5.404;2023-12-07T03:36:37;12.93;;;5.50;;
75413;SDS011;64758;52.122;5.404;2023-12-07T03:39:05;11.43;;;4.95;;
75413;SDS011;64758;52.122;5.404;2023-12-07T03:41:32;7.57;;;4.28;;
75413;SDS011;64758;52.122;5.404;2023-12-07T03:43:58;7.47;;;4.10;;
75413;SDS011;64758;52.122;5.404;2023-12-07T03:46:25;10.43;;;4.07;;
75413;SDS011;64758;52.122;5.404;2023-12-07T03:48:51;8.80;;;4.80;;
75413;SDS011;64758;52.122;5.404;2023-12-07T03:51:18;10.35;;;4.10;;
75413;SDS011;64758;52.122;5.404;2023-12-07T03:53:45;9.65;;;4.20;;
75413;SDS011;64758;52.122;5.404;2023-12-07T03:56:21;7.00;;;4.13;;
75413;SDS011;64758;52.122;5.404;2023-12-07T03:58:55;8.55;;;4.30;;
75413;SDS011;64758;52.122;5.404;2023-12-07T04:01:25;7.65;;;4.20;;
75413;SDS011;64758;52.122;5.404;2023-12-07T04:03:52;11.02;;;4.10;;
75413;SDS011;64758;52.122;5.404;2023-12-07T04:06:27;8.73;;;4.65;;
75413;SDS011;64758;52.122;5.404;2023-12-07T04:08:53;8.07;;;3.90;;
75413;SDS011;64758;52.122;5.404;2023-12-07T04:11:20;9.95;;;4.75;;
75413;SDS011;64758;52.122;5.404;2023-12-07T04:13:47;9.18;;;4.65;;
75413;SDS011;64758;52.122;5.404;2023-12-07T04:16:14;7.97;;;4.13;;
75413;SDS011;64758;52.122;5.404;2023-12-07T04:18:41;8.85;;;4.82;;
75413;SDS011;64758;52.122;5.404;2023-12-07T04:21:08;7.13;;;4.03;;
75413;SDS011;64758;52.122;5.404;2023-12-07T04:23:35;6.57;;;3.90;;
75413;SDS011;64758;52.122;5.404;2023-12-07T04:26:01;8.00;;;3.55;;
75413;SDS011;64758;52.122;5.404;2023-12-07T04:28:28;7.38;;;4.60;;
75413;SDS011;64758;52.122;5.404;2023-12-07T04:30:54;7.90;;;4.25;;
75413;SDS011;64758;52.122;5.404;2023-12-07T04:33:21;6.33;;;4.20;;
75413;SDS011;64758;52.122;5.404;2023-12-07T04:35:47;7.93;;;4.50;;
75413;SDS011;64758;52.122;5.404;2023-12-07T04:38:14;10.55;;;4.35;;
75413;SDS011;64758;52.122;5.404;2023-12-07T04:40:41;11.07;;;4.30;;
75413;SDS011;64758;52.122;5.404;2023-12-07T04:43:08;10.55;;;4.50;;
75413;SDS011;64758;52.122;5.404;2023-12-07T04:45:35;8.00;;;3.93;;
75413;SDS011;64758;52.122;5.404;2023-12-07T04:48:02;8.40;;;4.80;;
75413;SDS011;64758;52.122;5.404;2023-12-07T04:50:30;15.68;;;5.15;;
75413;SDS011;64758;52.122;5.404;2023-12-07T04:52:56;12.95;;;4.93;;
75413;SDS011;64758;52.122;5.404;2023-12-07T04:55:23;8.48;;;4.47;;
75413;SDS011;64758;52.122;5.404;2023-12-07T04:57:50;9.87;;;4.70;;
75413;SDS011;64758;52.122;5.404;2023-12-07T05:00:17;9.18;;;4.88;;
75413;SDS011;64758;52.122;5.404;2023-12-07T05:02:43;9.13;;;4.70;;
75413;SDS011;64758;52.122;5.404;2023-12-07T05:05:10;8.95;;;4.18;;
75413;SDS011;64758;52.122;5.404;2023-12-07T05:07:38;10.75;;;4.80;;
75413;SDS011;64758;52.122;5.404;2023-12-07T05:10:04;9.37;;;4.47;;
75413;SDS011;64758;52.122;5.404;2023-12-07T05:12:31;8.57;;;4.63;;
75413;SDS011;64758;52.122;5.404;2023-12-07T05:14:58;12.13;;;5.13;;
75413;SDS011;64758;52.122;5.404;2023-12-07T05:17:25;10.52;;;4.85;;
75413;SDS011;64758;52.122;5.404;2023-12-07T05:19:52;12.90;;;4.75;;
75413;SDS011;64758;52.122;5.404;2023-12-07T05:22:19;10.77;;;4.83;;
75413;SDS011;64758;52.122;5.404;2023-12-07T05:24:45;8.05;;;4.40;;
75413;SDS011;64758;52.122;5.404;2023-12-07T05:27:12;7.45;;;4.38;;
75413;SDS011;64758;52.122;5.404;2023-12-07T05:29:38;8.52;;;4.60;;
75413;SDS011;64758;52.122;5.404;2023-12-07T05:32:05;12.48;;;5.55;;
75413;SDS011;64758;52.122;5.404;2023-12-07T05:34:32;14.13;;;6.20;;
75413;SDS011;64758;52.122;5.404;2023-12-07T05:37:00;15.30;;;5.63;;
75413;SDS011;64758;52.122;5.404;2023-12-07T05:39:26;17.45;;;6.35;;
75413;SDS011;64758;52.122;5.404;2023-12-07T05:41:53;15.85;;;5.93;;
75413;SDS011;64758;52.122;5.404;2023-12-07T05:44:19;27.10;;;6.22;;
75413;SDS011;64758;52.122;5.404;2023-12-07T05:46:49;16.73;;;6.27;;
75413;SDS011;64758;52.122;5.404;2023-12-07T05:49:15;11.50;;;6.28;;
75413;SDS011;64758;52.122;5.404;2023-12-07T05:51:42;19.02;;;6.57;;
75413;SDS011;64758;52.122;5.404;2023-12-07T05:54:09;16.80;;;6.57;;
75413;SDS011;64758;52.122;5.404;2023-12-07T05:56:35;18.67;;;6.38;;
75413;SDS011;64758;52.122;5.404;2023-12-07T05:59:02;9.87;;;5.63;;
75413;SDS011;64758;52.122;5.404;2023-12-07T06:01:28;30.40;;;6.80;;
75413;SDS011;64758;52.122;5.404;2023-12-07T06:03:55;20.42;;;6.65;;
75413;SDS011;64758;52.122;5.404;2023-12-07T06:06:21;33.08;;;6.47;;
75413;SDS011;64758;52.122;5.404;2023-12-07T06:08:48;13.65;;;6.90;;
75413;SDS011;64758;52.122;5.404;2023-12-07T06:11:14;14.60;;;6.07;;
75413;SDS011;64758;52.122;5.404;2023-12-07T06:13:41;13.60;;;6.68;;
75413;SDS011;64758;52.122;5.404;2023-12-07T06:16:11;16.83;;;7.38;;
75413;SDS011;64758;52.122;5.404;2023-12-07T06:18:39;15.07;;;7.32;;
75413;SDS011;64758;52.122;5.404;2023-12-07T06:21:06;10.55;;;6.10;;
75413;SDS011;64758;52.122;5.404;2023-12-07T06:23:32;18.23;;;7.63;;
75413;SDS011;64758;52.122;5.404;2023-12-07T06:26:00;22.65;;;6.63;;
75413;SDS011;64758;52.122;5.404;2023-12-07T06:28:28;19.17;;;7.07;;
75413;SDS011;64758;52.122;5.404;2023-12-07T06:30:55;18.90;;;6.72;;
75413;SDS011;64758;52.122;5.404;2023-12-07T06:33:23;12.80;;;6.70;;
75413;SDS011;64758;52.122;5.404;2023-12-07T06:35:50;14.50;;;6.80;;
75413;SDS011;64758;52.122;5.404;2023-12-07T06:38:17;21.17;;;7.57;;
75413;SDS011;64758;52.122;5.404;2023-12-07T06:40:46;18.23;;;7.15;;
75413;SDS011;64758;52.122;5.404;2023-12-07T06:43:13;23.00;;;7.07;;
75413;SDS011;64758;52.122;5.404;2023-12-07T06:45:40;15.73;;;6.63;;
75413;SDS011;64758;52.122;5.404;2023-12-07T06:48:07;19.93;;;7.73;;
75413;SDS011;64758;52.122;5.404;2023-12-07T06:50:34;35.47;;;7.45;;
75413;SDS011;64758;52.122;5.404;2023-12-07T06:53:01;20.00;;;7.40;;
75413;SDS011;64758;52.122;5.404;2023-12-07T06:55:27;32.13;;;7.35;;
75413;SDS011;64758;52.122;5.404;2023-12-07T06:57:54;16.88;;;6.72;;
75413;SDS011;64758;52.122;5.404;2023-12-07T07:00:21;25.67;;;8.00;;
75413;SDS011;64758;52.122;5.404;2023-12-07T07:02:47;21.33;;;7.05;;
75413;SDS011;64758;52.122;5.404;2023-12-07T07:05:14;17.65;;;7.43;;
75413;SDS011;64758;52.122;5.404;2023-12-07T07:07:41;17.75;;;7.05;;
75413;SDS011;64758;52.122;5.404;2023-12-07T07:10:08;29.25;;;7.78;;
75413;SDS011;64758;52.122;5.404;2023-12-07T07:12:39;26.43;;;7.37;;
75413;SDS011;64758;52.122;5.404;2023-12-07T07:15:06;12.80;;;6.90;;
75413;SDS011;64758;52.122;5.404;2023-12-07T07:17:34;18.50;;;7.13;;
75413;SDS011;64758;52.122;5.404;2023-12-07T07:20:01;19.60;;;6.95;;
75413;SDS011;64758;52.122;5.404;2023-12-07T07:22:28;13.90;;;6.28;;
75413;SDS011;64758;52.122;5.404;2023-12-07T07:24:54;13.57;;;6.73;;
75413;SDS011;64758;52.122;5.404;2023-12-07T07:27:21;14.75;;;7.15;;
75413;SDS011;64758;52.122;5.404;2023-12-07T07:29:48;12.68;;;7.43;;
75413;SDS011;64758;52.122;5.404;2023-12-07T07:32:14;21.40;;;7.78;;
75413;SDS011;64758;52.122;5.404;2023-12-07T07:34:42;17.70;;;7.15;;
75413;SDS011;64758;52.122;5.404;2023-12-07T07:37:09;22.67;;;7.37;;
75413;SDS011;64758;52.122;5.404;2023-12-07T07:39:35;20.10;;;8.05;;
75413;SDS011;64758;52.122;5.404;2023-12-07T07:42:02;23.23;;;7.97;;
75413;SDS011;64758;52.122;5.404;2023-12-07T07:44:29;13.65;;;7.00;;
75413;SDS011;64758;52.122;5.404;2023-12-07T07:46:56;19.80;;;7.50;;
75413;SDS011;64758;52.122;5.404;2023-12-07T07:49:23;21.33;;;7.70;;
75413;SDS011;64758;52.122;5.404;2023-12-07T07:51:50;25.27;;;8.32;;
75413;SDS011;64758;52.122;5.404;2023-12-07T07:54:17;20.00;;;7.30;;
75413;SDS011;64758;52.122;5.404;2023-12-07T07:56:43;25.42;;;7.25;;
75413;SDS011;64758;52.122;5.404;2023-12-07T07:59:10;12.57;;;7.18;;
75413;SDS011;64758;52.122;5.404;2023-12-07T08:01:37;29.17;;;6.97;;
75413;SDS011;64758;52.122;5.404;2023-12-07T08:04:04;19.33;;;7.00;;
75413;SDS011;64758;52.122;5.404;2023-12-07T08:06:31;29.15;;;7.00;;
75413;SDS011;64758;52.122;5.404;2023-12-07T08:09:02;16.90;;;6.97;;
75413;SDS011;64758;52.122;5.404;2023-12-07T08:11:29;28.23;;;6.75;;
75413;SDS011;64758;52.122;5.404;2023-12-07T08:13:55;21.60;;;7.37;;
75413;SDS011;64758;52.122;5.404;2023-12-07T08:16:22;16.38;;;6.88;;
75413;SDS011;64758;52.122;5.404;2023-12-07T08:18:48;12.90;;;6.57;;
75413;SDS011;64758;52.122;5.404;2023-12-07T08:21:19;18.70;;;7.32;;
75413;SDS011;64758;52.122;5.404;2023-12-07T08:23:52;17.05;;;7.35;;
75413;SDS011;64758;52.122;5.404;2023-12-07T08:26:19;22.67;;;7.27;;
75413;SDS011;64758;52.122;5.404;2023-12-07T08:28:45;14.38;;;7.38;;
75413;SDS011;64758;52.122;5.404;2023-12-07T08:31:12;17.40;;;7.40;;
75413;SDS011;64758;52.122;5.404;2023-12-07T08:33:39;28.40;;;8.07;;
75413;SDS011;64758;52.122;5.404;2023-12-07T08:36:06;28.40;;;7.72;;
75413;SDS011;64758;52.122;5.404;2023-12-07T08:38:33;25.27;;;7.83;;
75413;SDS011;64758;52.122;5.404;2023-12-07T08:40:59;18.20;;;8.15;;
75413;SDS011;64758;52.122;5.404;2023-12-07T08:43:26;18.20;;;8.82;;
75413;SDS011;64758;52.122;5.404;2023-12-07T08:45:54;20.13;;;8.85;;
75413;SDS011;64758;52.122;5.404;2023-12-07T08:48:27;20.52;;;7.00;;
75413;SDS011;64758;52.122;5.404;2023-12-07T08:50:53;28.20;;;7.00;;
75413;SDS011;64758;52.122;5.404;2023-12-07T08:53:20;15.80;;;7.80;;
75413;SDS011;64758;52.122;5.404;2023-12-07T08:55:47;27.80;;;7.10;;
75413;SDS011;64758;52.122;5.404;2023-12-07T08:58:13;27.67;;;7.45;;
75413;SDS011;64758;52.122;5.404;2023-12-07T09:00:40;22.38;;;8.10;;
75413;SDS011;64758;52.122;5.404;2023-12-07T09:03:07;16.03;;;7.40;;
75413;SDS011;64758;52.122;5.404;2023-12-07T09:05:33;18.02;;;7.20;;
75413;SDS011;64758;52.122;5.404;2023-12-07T09:08:00;19.50;;;7.22;;
75413;SDS011;64758;52.122;5.404;2023-12-07T09:10:27;14.85;;;7.05;;
75413;SDS011;64758;52.122;5.404;2023-12-07T09:12:54;25.92;;;7.68;;
75413;SDS011;64758;52.122;5.404;2023-12-07T09:15:21;17.67;;;7.77;;
75413;SDS011;64758;52.122;5.404;2023-12-07T09:17:47;29.80;;;7.60;;
75413;SDS011;64758;52.122;5.404;2023-12-07T09:20:17;22.13;;;7.97;;
75413;SDS011;64758;52.122;5.404;2023-12-07T09:22:44;19.70;;;7.05;;
75413;SDS011;64758;52.122;5.404;2023-12-07T09:25:11;26.40;;;8.15;;
75413;SDS011;64758;52.122;5.404;2023-12-07T09:27:39;18.87;;;7.50;;
75413;SDS011;64758;52.122;5.404;2023-12-07T09:30:06;15.55;;;7.65;;
75413;SDS011;64758;52.122;5.404;2023-12-07T09:32:38;15.48;;;6.90;;
75413;SDS011;64758;52.122;5.404;2023-12-07T09:35:11;16.83;;;7.03;;
75413;SDS011;64758;52.122;5.404;2023-12-07T09:37:42;18.05;;;8.27;;
75413;SDS011;64758;52.122;5.404;2023-12-07T09:40:10;19.27;;;6.43;;
75413;SDS011;64758;52.122;5.404;2023-12-07T09:42:41;11.95;;;5.90;;
75413;SDS011;64758;52.122;5.404;2023-12-07T09:45:09;13.25;;;6.38;;
75413;SDS011;64758;52.122;5.404;2023-12-07T09:47:36;12.82;;;5.55;;
75413;SDS011;64758;52.122;5.404;2023-12-07T09:50:06;20.08;;;5.55;;
75413;SDS011;64758;52.122;5.404;2023-12-07T09:52:38;12.97;;;5.23;;
75413;SDS011;64758;52.122;5.404;2023-12-07T09:55:11;10.40;;;5.15;;
75413;SDS011;64758;52.122;5.404;2023-12-07T09:57:37;13.43;;;4.85;;
75413;SDS011;64758;52.122;5.404;2023-12-07T10:00:04;16.33;;;5.68;;
75413;SDS011;64758;52.122;5.404;2023-12-07T10:02:36;10.15;;;4.82;;
75413;SDS011;64758;52.122;5.404;2023-12-07T10:05:07;12.13;;;4.77;;
75413;SDS011;64758;52.122;5.404;2023-12-07T10:07:39;9.88;;;4.72;;
75413;SDS011;64758;52.122;5.404;2023-12-07T10:10:07;12.18;;;4.65;;
75413;SDS011;64758;52.122;5.404;2023-12-07T10:12:34;9.00;;;4.10;;
75413;SDS011;64758;52.122;5.404;2023-12-07T10:15:07;15.50;;;4.13;;
75413;SDS011;64758;52.122;5.404;2023-12-07T10:17:58;8.73;;;4.20;;
75413;SDS011;64758;52.122;5.404;2023-12-07T10:20:27;7.55;;;4.10;;
75413;SDS011;64758;52.122;5.404;2023-12-07T10:25:33;9.25;;;3.55;;
75413;SDS011;64758;52.122;5.404;2023-12-07T10:28:02;11.23;;;3.75;;
75413;SDS011;64758;52.122;5.404;2023-12-07T10:30:36;8.10;;;3.10;;
75413;SDS011;64758;52.122;5.404;2023-12-07T10:33:06;11.43;;;3.88;;
75413;SDS011;64758;52.122;5.404;2023-12-07T10:35:40;12.90;;;3.35;;
75413;SDS011;64758;52.122;5.404;2023-12-07T10:38:09;17.10;;;3.67;;
75413;SDS011;64758;52.122;5.404;2023-12-07T10:40:36;9.82;;;3.50;;
75413;SDS011;64758;52.122;5.404;2023-12-07T10:43:04;10.47;;;3.57;;
75413;SDS011;64758;52.122;5.404;2023-12-07T10:45:34;11.80;;;3.80;;
75413;SDS011;64758;52.122;5.404;2023-12-07T10:48:07;7.75;;;3.55;;
75413;SDS011;64758;52.122;5.404;2023-12-07T10:50:36;11.93;;;3.70;;
75413;SDS011;64758;52.122;5.404;2023-12-07T10:53:10;9.82;;;3.83;;
75413;SDS011;64758;52.122;5.404;2023-12-07T10:55:56;7.33;;;2.97;;
75413;SDS011;64758;52.122;5.404;2023-12-07T10:58:26;10.68;;;4.38;;
75413;SDS011;64758;52.122;5.404;2023-12-07T11:00:54;9.70;;;4.05;;
75413;SDS011;64758;52.122;5.404;2023-12-07T11:03:22;8.63;;;3.60;;
75413;SDS011;64758;52.122;5.404;2023-12-07T11:05:50;7.60;;;3.88;;
75413;SDS011;64758;52.122;5.404;2023-12-07T11:13:58;12.40;;;3.85;;
75413;SDS011;64758;52.122;5.404;2023-12-07T11:16:35;12.40;;;4.40;;
75413;SDS011;64758;52.122;5.404;2023-12-07T11:19:03;10.02;;;4.25;;
75413;SDS011;64758;52.122;5.404;2023-12-07T11:21:34;11.70;;;4.07;;
75413;SDS011;64758;52.122;5.404;2023-12-07T11:24:01;10.63;;;4.35;;
75413;SDS011;64758;52.122;5.404;2023-12-07T11:26:28;9.45;;;4.38;;
75413;SDS011;64758;52.122;5.404;2023-12-07T11:28:55;8.88;;;3.92;;
75413;SDS011;64758;52.122;5.404;2023-12-07T11:31:22;11.20;;;4.10;;
75413;SDS011;64758;52.122;5.404;2023-12-07T11:33:49;9.00;;;3.90;;
75413;SDS011;64758;52.122;5.404;2023-12-07T11:36:16;9.98;;;4.22;;
75413;SDS011;64758;52.122;5.404;2023-12-07T11:39:15;10.00;;;3.97;;
75413;SDS011;64758;52.122;5.404;2023-12-07T11:41:53;10.45;;;4.18;;
75413;SDS011;64758;52.122;5.404;2023-12-07T11:44:24;10.98;;;4.15;;
75413;SDS011;64758;52.122;5.404;2023-12-07T11:46:59;9.27;;;4.13;;
75413;SDS011;64758;52.122;5.404;2023-12-07T11:49:26;11.10;;;4.40;;
75413;SDS011;64758;52.122;5.404;2023-12-07T11:52:11;10.48;;;4.00;;
75413;SDS011;64758;52.122;5.404;2023-12-07T11:54:45;10.27;;;4.47;;
75413;SDS011;64758;52.122;5.404;2023-12-07T11:57:16;11.95;;;5.10;;
75413;SDS011;64758;52.122;5.404;2023-12-07T11:59:43;12.00;;;4.87;;
75413;SDS011;64758;52.122;5.404;2023-12-07T12:02:11;13.65;;;4.65;;
75413;SDS011;64758;52.122;5.404;2023-12-07T12:04:42;14.88;;;6.03;;
75413;SDS011;64758;52.122;5.404;2023-12-07T12:07:09;16.98;;;6.07;;
75413;SDS011;64758;52.122;5.404;2023-12-07T12:09:37;14.30;;;5.78;;
75413;SDS011;64758;52.122;5.404;2023-12-07T12:12:03;13.73;;;5.33;;
75413;SDS011;64758;52.122;5.404;2023-12-07T12:14:30;12.80;;;5.32;;
75413;SDS011;64758;52.122;5.404;2023-12-07T12:16:57;14.23;;;5.65;;
75413;SDS011;64758;52.122;5.404;2023-12-07T12:19:24;12.38;;;5.35;;
75413;SDS011;64758;52.122;5.404;2023-12-07T12:22:02;18.30;;;6.22;;
75413;SDS011;64758;52.122;5.404;2023-12-07T12:24:33;16.07;;;5.87;;
75413;SDS011;64758;52.122;5.404;2023-12-07T12:27:01;20.27;;;6.60;;
75413;SDS011;64758;52.122;5.404;2023-12-07T12:29:29;16.08;;;5.97;;
75413;SDS011;64758;52.122;5.404;2023-12-07T12:32:01;16.38;;;6.65;;
75413;SDS011;64758;52.122;5.404;2023-12-07T12:34:32;15.13;;;6.18;;
75413;SDS011;64758;52.122;5.404;2023-12-07T12:36:59;16.50;;;5.93;;
75413;SDS011;64758;52.122;5.404;2023-12-07T12:39:29;14.15;;;5.95;;
75413;SDS011;64758;52.122;5.404;2023-12-07T12:41:59;13.25;;;5.45;;
75413;SDS011;64758;52.122;5.404;2023-12-07T12:44:27;16.20;;;6.63;;
75413;SDS011;64758;52.122;5.404;2023-12-07T12:47:04;15.32;;;6.50;;
75413;SDS011;64758;52.122;5.404;2023-12-07T12:49:35;15.67;;;6.27;;
75413;SDS011;64758;52.122;5.404;2023-12-07T12:52:02;20.52;;;6.80;;
75413;SDS011;64758;52.122;5.404;2023-12-07T12:54:31;15.02;;;6.13;;
75413;SDS011;64758;52.122;5.404;2023-12-07T12:57:01;16.80;;;7.13;;
75413;SDS011;64758;52.122;5.404;2023-12-07T12:59:28;15.60;;;6.15;;
75413;SDS011;64758;52.122;5.404;2023-12-07T13:01:54;20.27;;;7.13;;
75413;SDS011;64758;52.122;5.404;2023-12-07T13:04:22;14.73;;;6.50;;
75413;SDS011;64758;52.122;5.404;2023-12-07T13:06:49;18.48;;;7.38;;
75413;SDS011;64758;52.122;5.404;2023-12-07T13:09:16;18.40;;;8.00;;
75413;SDS011;64758;52.122;5.404;2023-12-07T13:11:43;19.70;;;7.45;;
75413;SDS011;64758;52.122;5.404;2023-12-07T13:14:10;16.97;;;7.10;;
75413;SDS011;64758;52.122;5.404;2023-12-07T13:16:36;20.38;;;7.90;;
75413;SDS011;64758;52.122;5.404;2023-12-07T13:19:03;17.55;;;7.15;;
75413;SDS011;64758;52.122;5.404;2023-12-07T13:21:30;16.83;;;7.40;;
75413;SDS011;64758;52.122;5.404;2023-12-07T13:23:58;16.85;;;7.97;;
75413;SDS011;64758;52.122;5.404;2023-12-07T13:26:27;17.10;;;8.43;;
75413;SDS011;64758;52.122;5.404;2023-12-07T13:28:54;21.95;;;9.82;;
75413;SDS011;64758;52.122;5.404;2023-12-07T13:31:21;20.05;;;9.85;;
75413;SDS011;64758;52.122;5.404;2023-12-07T13:33:48;20.30;;;9.68;;
75413;SDS011;64758;52.122;5.404;2023-12-07T13:36:22;23.50;;;10.48;;
75413;SDS011;64758;52.122;5.404;2023-12-07T13:38:50;20.87;;;9.70;;
75413;SDS011;64758;52.122;5.404;2023-12-07T13:41:17;22.50;;;9.90;;
75413;SDS011;64758;52.122;5.404;2023-12-07T13:43:43;20.13;;;9.65;;
75413;SDS011;64758;52.122;5.404;2023-12-07T13:46:10;21.85;;;9.65;;
75413;SDS011;64758;52.122;5.404;2023-12-07T13:48:37;19.15;;;9.23;;
75413;SDS011;64758;52.122;5.404;2023-12-07T13:51:04;18.87;;;8.63;;
75413;SDS011;64758;52.122;5.404;2023-12-07T13:53:31;23.50;;;9.25;;
75413;SDS011;64758;52.122;5.404;2023-12-07T13:55:58;23.27;;;9.90;;
75413;SDS011;64758;52.122;5.404;2023-12-07T13:58:24;22.60;;;9.45;;
75413;SDS011;64758;52.122;5.404;2023-12-07T14:00:51;26.13;;;10.13;;
75413;SDS011;64758;52.122;5.404;2023-12-07T14:03:17;21.57;;;9.47;;
75413;SDS011;64758;52.122;5.404;2023-12-07T14:05:44;20.88;;;8.70;;
75413;SDS011;64758;52.122;5.404;2023-12-07T14:08:12;20.92;;;9.05;;
75413;SDS011;64758;52.122;5.404;2023-12-07T14:10:38;20.90;;;8.80;;
75413;SDS011;64758;52.122;5.404;2023-12-07T14:13:05;24.55;;;9.57;;
75413;SDS011;64758;52.122;5.404;2023-12-07T14:15:34;22.53;;;9.33;;
75413;SDS011;64758;52.122;5.404;2023-12-07T14:18:10;18.38;;;8.88;;
75413;SDS011;64758;52.122;5.404;2023-12-07T14:20:37;22.40;;;8.75;;
75413;SDS011;64758;52.122;5.404;2023-12-07T14:23:07;22.80;;;8.90;;
75413;SDS011;64758;52.122;5.404;2023-12-07T14:25:34;21.08;;;8.98;;
75413;SDS011;64758;52.122;5.404;2023-12-07T14:28:00;21.23;;;9.40;;
75413;SDS011;64758;52.122;5.404;2023-12-07T14:30:27;21.02;;;8.20;;
75413;SDS011;64758;52.122;5.404;2023-12-07T14:32:53;22.77;;;9.90;;
75413;SDS011;64758;52.122;5.404;2023-12-07T14:35:20;24.92;;;8.77;;
75413;SDS011;64758;52.122;5.404;2023-12-07T14:37:48;26.40;;;10.48;;
75413;SDS011;64758;52.122;5.404;2023-12-07T14:40:16;24.20;;;9.67;;
75413;SDS011;64758;52.122;5.404;2023-12-07T14:42:43;24.88;;;10.43;;
75413;SDS011;64758;52.122;5.404;2023-12-07T14:45:11;22.83;;;10.23;;
75413;SDS011;64758;52.122;5.404;2023-12-07T14:47:38;20.60;;;9.13;;
75413;SDS011;64758;52.122;5.404;2023-12-07T14:50:05;23.95;;;9.70;;
75413;SDS011;64758;52.122;5.404;2023-12-07T14:52:32;22.10;;;10.03;;